Aviation Digital Data Service (ADDS)

Output produced by METARs form (0304 UTC 22 February 2019)
found at http://www.aviationweather.gov/metar/data/
 
METAR text: KDCA 220252Z 35007KT 10SM BKN170 11/M02 A3019 RMK AO2 SLP221 T01061022 51020
Conditions at: KDCA (WASHINGTON/NATL , DC, US) observed 0252 UTC 22 February 2019
Temperature: 10.6°C (51°F)
Dewpoint: -2.2°C (28°F) [RH = 41%]
Pressure (altimeter): 30.19 inches Hg (1022.4 mb)
[Sea-level pressure: 1022.1 mb]
Winds: from the N (350 degrees) at 8 MPH (7 knots; 3.6 m/s)
Visibility: 10 or more miles (16+ km)
Ceiling: 17000 feet AGL
Clouds: broken clouds at 17000 feet AGL
Weather: no significant weather observed at this time

METAR text: KDCA 220152Z 35009KT 10SM FEW150 BKN170 11/M02 A3017 RMK AO2 SLP216 T01111022
Conditions at: KDCA (WASHINGTON/NATL , DC, US) observed 0152 UTC 22 February 2019
Temperature: 11.1°C (52°F)
Dewpoint: -2.2°C (28°F) [RH = 39%]
Pressure (altimeter): 30.17 inches Hg (1021.8 mb)
[Sea-level pressure: 1021.6 mb]
Winds: from the N (350 degrees) at 10 MPH (9 knots; 4.6 m/s)
Visibility: 10 or more miles (16+ km)
Ceiling: 17000 feet AGL
Clouds: few clouds at 15000 feet AGL
broken clouds at 17000 feet AGL
Weather: no significant weather observed at this time

METAR text: KDCA 220052Z 00000KT 10SM FEW150 BKN180 13/M04 A3015 RMK AO2 SLP209 T01331044
Conditions at: KDCA (WASHINGTON/NATL , DC, US) observed 0052 UTC 22 February 2019
Temperature: 13.3°C (56°F)
Dewpoint: -4.4°C (24°F) [RH = 29%]
Pressure (altimeter): 30.15 inches Hg (1021.1 mb)
[Sea-level pressure: 1020.9 mb]
Winds: calm
Visibility: 10 or more miles (16+ km)
Ceiling: 18000 feet AGL
Clouds: few clouds at 15000 feet AGL
broken clouds at 18000 feet AGL
Weather: no significant weather observed at this time

METAR text: KDCA 212352Z 34004KT 10SM FEW150 BKN170 13/M04 A3013 RMK AO2 SLP202 T01331039 10156 20078 53025
Conditions at: KDCA (WASHINGTON/NATL , DC, US) observed 2352 UTC 21 February 2019
Temperature: 13.3°C (56°F)
Dewpoint: -3.9°C (25°F) [RH = 30%]
Pressure (altimeter): 30.13 inches Hg (1020.4 mb)
[Sea-level pressure: 1020.2 mb]
Winds: from the NNW (340 degrees) at 5 MPH (4 knots; 2.1 m/s)
Visibility: 10 or more miles (16+ km)
Ceiling: 17000 feet AGL
Clouds: few clouds at 15000 feet AGL
broken clouds at 17000 feet AGL
Weather: no significant weather observed at this time

METAR text: KDCA 212252Z 33007KT 10SM FEW150 BKN210 14/M03 A3010 RMK AO2 SLP191 T01391028
Conditions at: KDCA (WASHINGTON/NATL , DC, US) observed 2252 UTC 21 February 2019
Temperature: 13.9°C (57°F)
Dewpoint: -2.8°C (27°F) [RH = 31%]
Pressure (altimeter): 30.10 inches Hg (1019.4 mb)
[Sea-level pressure: 1019.1 mb]
Winds: from the NNW (330 degrees) at 8 MPH (7 knots; 3.6 m/s)
Visibility: 10 or more miles (16+ km)
Ceiling: 21000 feet AGL
Clouds: few clouds at 15000 feet AGL
broken clouds at 21000 feet AGL
Weather: no significant weather observed at this time

METAR text: KDCA 212152Z VRB04KT 10SM FEW150 BKN250 15/M01 A3007 RMK AO2 SLP181 T01501006
Conditions at: KDCA (WASHINGTON/NATL , DC, US) observed 2152 UTC 21 February 2019
Temperature: 15.0°C (59°F)
Dewpoint: -0.6°C (31°F) [RH = 34%]
Pressure (altimeter): 30.07 inches Hg (1018.4 mb)
[Sea-level pressure: 1018.1 mb]
Winds: variable direction winds at 5 MPH (4 knots; 2.1 m/s)
Visibility: 10 or more miles (16+ km)
Ceiling: 25000 feet AGL
Clouds: few clouds at 15000 feet AGL
broken clouds at 25000 feet AGL
Weather: no significant weather observed at this time

METAR text: KDCA 212052Z VRB05KT 10SM SCT250 14/02 A3005 RMK AO2 SLP176 T01440017 55002
Conditions at: KDCA (WASHINGTON/NATL , DC, US) observed 2052 UTC 21 February 2019
Temperature: 14.4°C (58°F)
Dewpoint: 1.7°C (35°F) [RH = 42%]
Pressure (altimeter): 30.05 inches Hg (1017.7 mb)
[Sea-level pressure: 1017.6 mb]
Winds: variable direction winds at 6 MPH (5 knots; 2.6 m/s)
Visibility: 10 or more miles (16+ km)
Ceiling: at least 12,000 feet AGL
Clouds: scattered clouds at 25000 feet AGL
Weather: no significant weather observed at this time

METAR text: KDCA 211952Z VRB05KT 10SM BKN250 14/03 A3005 RMK AO2 SLP175 T01440028
Conditions at: KDCA (WASHINGTON/NATL , DC, US) observed 1952 UTC 21 February 2019
Temperature: 14.4°C (58°F)
Dewpoint: 2.8°C (37°F) [RH = 46%]
Pressure (altimeter): 30.05 inches Hg (1017.7 mb)
[Sea-level pressure: 1017.5 mb]
Winds: variable direction winds at 6 MPH (5 knots; 2.6 m/s)
Visibility: 10 or more miles (16+ km)
Ceiling: 25000 feet AGL
Clouds: broken clouds at 25000 feet AGL
Weather: no significant weather observed at this time

METAR text: KDCA 211852Z 34003KT 10SM BKN250 13/04 A3005 RMK AO2 SLP176 T01280039
Conditions at: KDCA (WASHINGTON/NATL , DC, US) observed 1852 UTC 21 February 2019
Temperature: 12.8°C (55°F)
Dewpoint: 3.9°C (39°F) [RH = 55%]
Pressure (altimeter): 30.05 inches Hg (1017.7 mb)
[Sea-level pressure: 1017.6 mb]
Winds: from the NNW (340 degrees) at 3 MPH (3 knots; 1.5 m/s)
Visibility: 10 or more miles (16+ km)
Ceiling: 25000 feet AGL
Clouds: broken clouds at 25000 feet AGL
Weather: no significant weather observed at this time

METAR text: KDCA 211752Z 15003KT 10SM OVC250 08/03 A3006 RMK AO2 SLP178 4/001 T00780033 10078 20017 50001
Conditions at: KDCA (WASHINGTON/NATL , DC, US) observed 1752 UTC 21 February 2019
Temperature: 7.8°C (46°F)
Dewpoint: 3.3°C (38°F) [RH = 73%]
Pressure (altimeter): 30.06 inches Hg (1018.0 mb)
[Sea-level pressure: 1017.8 mb]
Winds: from the SSE (150 degrees) at 3 MPH (3 knots; 1.5 m/s)
Visibility: 10 or more miles (16+ km)
Ceiling: 25000 feet AGL
Clouds: overcast cloud deck at 25000 feet AGL
Weather: no significant weather observed at this time

METAR text: KDCA 211652Z 00000KT 10SM FEW140 OVC250 06/02 A3008 RMK AO2 SLP184 T00610022
Conditions at: KDCA (WASHINGTON/NATL , DC, US) observed 1652 UTC 21 February 2019
Temperature: 6.1°C (43°F)
Dewpoint: 2.2°C (36°F) [RH = 76%]
Pressure (altimeter): 30.08 inches Hg (1018.7 mb)
[Sea-level pressure: 1018.4 mb]
Winds: calm
Visibility: 10 or more miles (16+ km)
Ceiling: 25000 feet AGL
Clouds: few clouds at 14000 feet AGL
overcast cloud deck at 25000 feet AGL
Weather: no significant weather observed at this time

METAR text: KDCA 211552Z 11003KT 10SM FEW140 OVC250 04/02 A3008 RMK AO2 SLP185 T00440017
Conditions at: KDCA (WASHINGTON/NATL , DC, US) observed 1552 UTC 21 February 2019
Temperature: 4.4°C (40°F)
Dewpoint: 1.7°C (35°F) [RH = 83%]
Pressure (altimeter): 30.08 inches Hg (1018.7 mb)
[Sea-level pressure: 1018.5 mb]
Winds: from the ESE (110 degrees) at 3 MPH (3 knots; 1.5 m/s)
Visibility: 10 or more miles (16+ km)
Ceiling: 25000 feet AGL
Clouds: few clouds at 14000 feet AGL
overcast cloud deck at 25000 feet AGL
Weather: no significant weather observed at this time

METAR text: KDCA 211452Z 08003KT 9SM FEW008 FEW140 BKN230 04/01 A3006 RMK AO2 SLP178 T00390011 51013
Conditions at: KDCA (WASHINGTON/NATL , DC, US) observed 1452 UTC 21 February 2019
Temperature: 3.9°C (39°F)
Dewpoint: 1.1°C (34°F) [RH = 82%]
Pressure (altimeter): 30.06 inches Hg (1018.0 mb)
[Sea-level pressure: 1017.8 mb]
Winds: from the E (80 degrees) at 3 MPH (3 knots; 1.5 m/s)
Visibility: 9 miles (14 km)
Ceiling: 23000 feet AGL
Clouds: few clouds at 800 feet AGL
few clouds at 14000 feet AGL
broken clouds at 23000 feet AGL
Weather: no significant weather observed at this time

METAR text: KDCA 211352Z 00000KT 9SM SCT006 BKN230 03/01 A3006 RMK AO2 SLP177 T00280006
Conditions at: KDCA (WASHINGTON/NATL , DC, US) observed 1352 UTC 21 February 2019
Temperature: 2.8°C (37°F)
Dewpoint: 0.6°C (33°F) [RH = 85%]
Pressure (altimeter): 30.06 inches Hg (1018.0 mb)
[Sea-level pressure: 1017.7 mb]
Winds: calm
Visibility: 9 miles (14 km)
Ceiling: 23000 feet AGL
Clouds: scattered clouds at 600 feet AGL
broken clouds at 23000 feet AGL
Weather: no significant weather observed at this time

METAR text: KDCA 211252Z 23006KT 10SM SCT009 SCT140 OVC230 02/00 A3004 RMK AO2 SLP171 T00220000
Conditions at: KDCA (WASHINGTON/NATL , DC, US) observed 1252 UTC 21 February 2019
Temperature: 2.2°C (36°F)
Dewpoint: 0.0°C (32°F) [RH = 85%]
Pressure (altimeter): 30.04 inches Hg (1017.4 mb)
[Sea-level pressure: 1017.1 mb]
Winds: from the SW (230 degrees) at 7 MPH (6 knots; 3.1 m/s)
Visibility: 10 or more miles (16+ km)
Ceiling: 23000 feet AGL
Clouds: scattered clouds at 900 feet AGL
scattered clouds at 14000 feet AGL
overcast cloud deck at 23000 feet AGL
Weather: no significant weather observed at this time

METAR text: KDCA 211237Z 24003KT 9SM SCT009 SCT140 OVC230 02/00 A3002 RMK AO2 T00220000
Conditions at: KDCA (WASHINGTON/NATL , DC, US) observed 1237 UTC 21 February 2019
Temperature: 2.2°C (36°F)
Dewpoint: 0.0°C (32°F) [RH = 85%]
Pressure (altimeter): 30.02 inches Hg (1016.7 mb)
Winds: from the WSW (240 degrees) at 3 MPH (3 knots; 1.5 m/s)
Visibility: 9 miles (14 km)
Ceiling: 23000 feet AGL
Clouds: scattered clouds at 900 feet AGL
scattered clouds at 14000 feet AGL
overcast cloud deck at 23000 feet AGL
Weather: no significant weather observed at this time

METAR text: KDCA 211152Z 25003KT 9SM FEW007 FEW075 OVC190 02/00 A3002 RMK AO2 SLP165 4/002 70070 T00220000 10022 20017 53007
Conditions at: KDCA (WASHINGTON/NATL , DC, US) observed 1152 UTC 21 February 2019
Temperature: 2.2°C (36°F)
Dewpoint: 0.0°C (32°F) [RH = 85%]
Pressure (altimeter): 30.02 inches Hg (1016.7 mb)
[Sea-level pressure: 1016.5 mb]
Winds: from the WSW (250 degrees) at 3 MPH (3 knots; 1.5 m/s)
Visibility: 9 miles (14 km)
Ceiling: 19000 feet AGL
Clouds: few clouds at 700 feet AGL
few clouds at 7500 feet AGL
overcast cloud deck at 19000 feet AGL
Weather: no significant weather observed at this time

METAR text: KDCA 211052Z 00000KT 9SM FEW007 FEW080 OVC210 02/M01 A3000 RMK AO2 SLP159 T00171006
Conditions at: KDCA (WASHINGTON/NATL , DC, US) observed 1052 UTC 21 February 2019
Temperature: 1.7°C (35°F)
Dewpoint: -0.6°C (31°F) [RH = 85%]
Pressure (altimeter): 30.00 inches Hg (1016.0 mb)
[Sea-level pressure: 1015.9 mb]
Winds: calm
Visibility: 9 miles (14 km)
Ceiling: 21000 feet AGL
Clouds: few clouds at 700 feet AGL
few clouds at 8000 feet AGL
overcast cloud deck at 21000 feet AGL
Weather: no significant weather observed at this time

METAR text: KDCA 210952Z 21004KT 8SM FEW005 SCT075 OVC220 02/00 A3000 RMK AO2 SLP159 T00170000
Conditions at: KDCA (WASHINGTON/NATL , DC, US) observed 0952 UTC 21 February 2019
Temperature: 1.7°C (35°F)
Dewpoint: 0.0°C (32°F) [RH = 88%]
Pressure (altimeter): 30.00 inches Hg (1016.0 mb)
[Sea-level pressure: 1015.9 mb]
Winds: from the SSW (210 degrees) at 5 MPH (4 knots; 2.1 m/s)
Visibility: 8 miles (13 km)
Ceiling: 22000 feet AGL
Clouds: few clouds at 500 feet AGL
scattered clouds at 7500 feet AGL
overcast cloud deck at 22000 feet AGL
Weather: no significant weather observed at this time

METAR text: KDCA 210852Z 22004KT 4SM BR FEW003 OVC095 02/00 A3000 RMK AO2 SLP158 T00170000 55010
Conditions at: KDCA (WASHINGTON/NATL , DC, US) observed 0852 UTC 21 February 2019
Temperature: 1.7°C (35°F)
Dewpoint: 0.0°C (32°F) [RH = 88%]
Pressure (altimeter): 30.00 inches Hg (1016.0 mb)
[Sea-level pressure: 1015.8 mb]
Winds: from the SW (220 degrees) at 5 MPH (4 knots; 2.1 m/s)
Visibility: 4 miles ( 6 km)
Ceiling: 9500 feet AGL
Clouds: few clouds at 300 feet AGL
overcast cloud deck at 9500 feet AGL
Weather: BR  (mist)

METAR text: KDCA 210801Z 24004KT 5SM BR SCT004 OVC065 02/00 A3000 RMK AO2 T00170000
Conditions at: KDCA (WASHINGTON/NATL , DC, US) observed 0801 UTC 21 February 2019
Temperature: 1.7°C (35°F)
Dewpoint: 0.0°C (32°F) [RH = 88%]
Pressure (altimeter): 30.00 inches Hg (1016.0 mb)
Winds: from the WSW (240 degrees) at 5 MPH (4 knots; 2.1 m/s)
Visibility: 5 miles ( 8 km)
Ceiling: 6500 feet AGL
Clouds: scattered clouds at 400 feet AGL
overcast cloud deck at 6500 feet AGL
Weather: BR  (mist)

METAR text: KDCA 210752Z 24004KT 4SM BR BKN005 OVC065 02/00 A3000 RMK AO2 SLP156 T00170000
Conditions at: KDCA (WASHINGTON/NATL , DC, US) observed 0752 UTC 21 February 2019
Temperature: 1.7°C (35°F)
Dewpoint: 0.0°C (32°F) [RH = 88%]
Pressure (altimeter): 30.00 inches Hg (1016.0 mb)
[Sea-level pressure: 1015.6 mb]
Winds: from the WSW (240 degrees) at 5 MPH (4 knots; 2.1 m/s)
Visibility: 4 miles ( 6 km)
Ceiling: 500 feet AGL
Clouds: broken clouds at 500 feet AGL
overcast cloud deck at 6500 feet AGL
Weather: BR  (mist)

METAR text: KDCA 210652Z 00000KT 9SM OVC006 02/00 A3002 RMK AO2 SLP163 T00170000
Conditions at: KDCA (WASHINGTON/NATL , DC, US) observed 0652 UTC 21 February 2019
Temperature: 1.7°C (35°F)
Dewpoint: 0.0°C (32°F) [RH = 88%]
Pressure (altimeter): 30.02 inches Hg (1016.7 mb)
[Sea-level pressure: 1016.3 mb]
Winds: calm
Visibility: 9 miles (14 km)
Ceiling: 600 feet AGL
Clouds: overcast cloud deck at 600 feet AGL
Weather: no significant weather observed at this time

METAR text: KDCA 210619Z 28004KT 8SM OVC007 02/00 A3003 RMK AO2 T00170000
Conditions at: KDCA (WASHINGTON/NATL , DC, US) observed 0619 UTC 21 February 2019
Temperature: 1.7°C (35°F)
Dewpoint: 0.0°C (32°F) [RH = 88%]
Pressure (altimeter): 30.03 inches Hg (1017.0 mb)
Winds: from the W (280 degrees) at 5 MPH (4 knots; 2.1 m/s)
Visibility: 8 miles (13 km)
Ceiling: 700 feet AGL
Clouds: overcast cloud deck at 700 feet AGL
Weather: no significant weather observed at this time

METAR text: KDCA 210552Z 00000KT 8SM OVC008 02/00 A3003 RMK AO2 RAE0454 SLP168 4/002 P0000 60005 T00170000 10017 20011 56033
Conditions at: KDCA (WASHINGTON/NATL , DC, US) observed 0552 UTC 21 February 2019
Temperature: 1.7°C (35°F)
Dewpoint: 0.0°C (32°F) [RH = 88%]
Pressure (altimeter): 30.03 inches Hg (1017.0 mb)
[Sea-level pressure: 1016.8 mb]
Winds: calm
Visibility: 8 miles (13 km)
Ceiling: 800 feet AGL
Clouds: overcast cloud deck at 800 feet AGL
Weather: no significant weather observed at this time

METAR text: KDCA 210528Z 33004KT 4SM BR SCT005 OVC009 01/00 A3003 RMK AO2 RAE0454 P0000 T00110000
Conditions at: KDCA (WASHINGTON/NATL , DC, US) observed 0528 UTC 21 February 2019
Temperature: 1.1°C (34°F)
Dewpoint: 0.0°C (32°F) [RH = 92%]
Pressure (altimeter): 30.03 inches Hg (1017.0 mb)
Winds: from the NNW (330 degrees) at 5 MPH (4 knots; 2.1 m/s)
Visibility: 4 miles ( 6 km)
Ceiling: 900 feet AGL
Clouds: scattered clouds at 500 feet AGL
overcast cloud deck at 900 feet AGL
Weather: BR  (mist)

METAR text: KDCA 210452Z 32006KT 6SM -RA BR SCT003 OVC007 02/M01 A3006 RMK AO2 RAE06B38 SLP179 P0000 T00171006 400281011
Conditions at: KDCA (WASHINGTON/NATL , DC, US) observed 0452 UTC 21 February 2019
Temperature: 1.7°C (35°F)
Dewpoint: -0.6°C (31°F) [RH = 85%]
Pressure (altimeter): 30.06 inches Hg (1018.0 mb)
[Sea-level pressure: 1017.9 mb]
Winds: from the NW (320 degrees) at 7 MPH (6 knots; 3.1 m/s)
Visibility: 6 miles (10 km)
Ceiling: 700 feet AGL
Clouds: scattered clouds at 300 feet AGL
overcast cloud deck at 700 feet AGL
Weather: -RA BR  (light rain, mist)

METAR text: KDCA 210352Z 35005KT 4SM -RA BR SCT003 OVC006 02/M01 A3008 RMK AO2 RAB48 PRESFR SLP185 P0000 T00171006
Conditions at: KDCA (WASHINGTON/NATL , DC, US) observed 0352 UTC 21 February 2019
Temperature: 1.7°C (35°F)
Dewpoint: -0.6°C (31°F) [RH = 85%]
Pressure (altimeter): 30.08 inches Hg (1018.7 mb)
[Sea-level pressure: 1018.5 mb]
Winds: from the N (350 degrees) at 6 MPH (5 knots; 2.6 m/s)
Visibility: 4 miles ( 6 km)
Ceiling: 600 feet AGL
Clouds: scattered clouds at 300 feet AGL
overcast cloud deck at 600 feet AGL
Weather: -RA BR  (light rain, mist)

METAR text: KDCA 210252Z 36003KT 10SM OVC006 02/M01 A3013 RMK AO2 SLP201 60005 T00171006 56048
Conditions at: KDCA (WASHINGTON/NATL , DC, US) observed 0252 UTC 21 February 2019
Temperature: 1.7°C (35°F)
Dewpoint: -0.6°C (31°F) [RH = 85%]
Pressure (altimeter): 30.13 inches Hg (1020.4 mb)
[Sea-level pressure: 1020.1 mb]
Winds: from the N (360 degrees) at 3 MPH (3 knots; 1.5 m/s)
Visibility: 10 or more miles (16+ km)
Ceiling: 600 feet AGL
Clouds: overcast cloud deck at 600 feet AGL
Weather: no significant weather observed at this time

METAR text: KDCA 210152Z 35005KT 10SM BKN005 OVC019 01/M01 A3017 RMK AO2 RAE33 SLP214 P0000 T00111006
Conditions at: KDCA (WASHINGTON/NATL , DC, US) observed 0152 UTC 21 February 2019
Temperature: 1.1°C (34°F)
Dewpoint: -0.6°C (31°F) [RH = 88%]
Pressure (altimeter): 30.17 inches Hg (1021.8 mb)
[Sea-level pressure: 1021.4 mb]
Winds: from the N (350 degrees) at 6 MPH (5 knots; 2.6 m/s)
Visibility: 10 or more miles (16+ km)
Ceiling: 500 feet AGL
Clouds: broken clouds at 500 feet AGL
overcast cloud deck at 1900 feet AGL
Weather: no significant weather observed at this time

METAR text: KDCA 210052Z 08006KT 6SM -RA BR BKN007 BKN016 OVC023 01/M01 A3020 RMK AO2 RAB03 SLP224 P0005 T00111006
Conditions at: KDCA (WASHINGTON/NATL , DC, US) observed 0052 UTC 21 February 2019
Temperature: 1.1°C (34°F)
Dewpoint: -0.6°C (31°F) [RH = 88%]
Pressure (altimeter): 30.20 inches Hg (1022.8 mb)
[Sea-level pressure: 1022.4 mb]
Winds: from the E (80 degrees) at 7 MPH (6 knots; 3.1 m/s)
Visibility: 6 miles (10 km)
Ceiling: 700 feet AGL
Clouds: broken clouds at 700 feet AGL
broken clouds at 1600 feet AGL
overcast cloud deck at 2300 feet AGL
Weather: -RA BR  (light rain, mist)

METAR text: KDCA 202352Z COR 36004KT 10SM BKN006 OVC022 01/M01 A3027 RMK AO2 DZE39RAB39E45 SLP249 P0000 60013 4/001 I6000 T00111006 10011 20000 58013
Conditions at: KDCA (WASHINGTON/NATL , DC, US) observed 2352 UTC 20 February 2019
Temperature: 1.1°C (34°F)
Dewpoint: -0.6°C (31°F) [RH = 88%]
Pressure (altimeter): 30.27 inches Hg (1025.1 mb)
[Sea-level pressure: 1024.9 mb]
Winds: from the N (360 degrees) at 5 MPH (4 knots; 2.1 m/s)
Visibility: 10 or more miles (16+ km)
Ceiling: 600 feet AGL
Clouds: broken clouds at 600 feet AGL
overcast cloud deck at 2200 feet AGL
Weather: no significant weather observed at this time

METAR text: KDCA 202342Z 01004KT 10SM -RA BKN006 OVC025 01/M01 A3027 RMK AO2 DZE39RAB39 P0000 T00111006
Conditions at: KDCA (WASHINGTON/NATL , DC, US) observed 2342 UTC 20 February 2019
Temperature: 1.1°C (34°F)
Dewpoint: -0.6°C (31°F) [RH = 88%]
Pressure (altimeter): 30.27 inches Hg (1025.1 mb)
Winds: from the N (10 degrees) at 5 MPH (4 knots; 2.1 m/s)
Visibility: 10 or more miles (16+ km)
Ceiling: 600 feet AGL
Clouds: broken clouds at 600 feet AGL
overcast cloud deck at 2500 feet AGL
Weather: -RA  (light rain)

METAR text: KDCA 202321Z 04006KT 5SM -DZ BR SCT006 BKN020 OVC026 01/M01 A3027 RMK AO2 P0000 T00111006
Conditions at: KDCA (WASHINGTON/NATL , DC, US) observed 2321 UTC 20 February 2019
Temperature: 1.1°C (34°F)
Dewpoint: -0.6°C (31°F) [RH = 88%]
Pressure (altimeter): 30.27 inches Hg (1025.1 mb)
Winds: from the NE (40 degrees) at 7 MPH (6 knots; 3.1 m/s)
Visibility: 5 miles ( 8 km)
Ceiling: 2000 feet AGL
Clouds: scattered clouds at 600 feet AGL
broken clouds at 2000 feet AGL
overcast cloud deck at 2600 feet AGL
Weather: -DZ BR  (light drizzle, mist)

METAR text: KDCA 202301Z 04007KT 5SM -DZ BR SCT006 OVC014 01/M01 A3027 RMK AO2 PRESFR P0000 T00111006
Conditions at: KDCA (WASHINGTON/NATL , DC, US) observed 2301 UTC 20 February 2019
Temperature: 1.1°C (34°F)
Dewpoint: -0.6°C (31°F) [RH = 88%]
Pressure (altimeter): 30.27 inches Hg (1025.1 mb)
Winds: from the NE (40 degrees) at 8 MPH (7 knots; 3.6 m/s)
Visibility: 5 miles ( 8 km)
Ceiling: 1400 feet AGL
Clouds: scattered clouds at 600 feet AGL
overcast cloud deck at 1400 feet AGL
Weather: -DZ BR  (light drizzle, mist)

METAR text: KDCA 202252Z 36005KT 6SM -DZ BR BKN007 OVC012 01/M01 A3030 RMK AO2 SLP259 RAE14DZB23 P0000 T00111006
Conditions at: KDCA (WASHINGTON/NATL , DC, US) observed 2252 UTC 20 February 2019
Temperature: 1.1°C (34°F)
Dewpoint: -0.6°C (31°F) [RH = 88%]
Pressure (altimeter): 30.30 inches Hg (1026.2 mb)
[Sea-level pressure: 1025.9 mb]
Winds: from the N (360 degrees) at 6 MPH (5 knots; 2.6 m/s)
Visibility: 6 miles (10 km)
Ceiling: 700 feet AGL
Clouds: broken clouds at 700 feet AGL
overcast cloud deck at 1200 feet AGL
Weather: -DZ BR  (light drizzle, mist)

METAR text: KDCA 202230Z 02006KT 3SM -DZ BR BKN005 OVC016 01/M01 A3029 RMK AO2 RAE14DZB23 P0000 T00111011
Conditions at: KDCA (WASHINGTON/NATL , DC, US) observed 2230 UTC 20 February 2019
Temperature: 1.1°C (34°F)
Dewpoint: -1.1°C (30°F) [RH = 85%]
Pressure (altimeter): 30.29 inches Hg (1025.8 mb)
Winds: from the NNE (20 degrees) at 7 MPH (6 knots; 3.1 m/s)
Visibility: 3 miles ( 5 km)
Ceiling: 500 feet AGL
Clouds: broken clouds at 500 feet AGL
overcast cloud deck at 1600 feet AGL
Weather: -DZ BR  (light drizzle, mist)

METAR text: KDCA 202224Z 04006KT 3SM -DZ BR SCT005 BKN009 OVC016 01/M01 A3029 RMK AO2 RAE14DZB23 P0000 T00111011
Conditions at: KDCA (WASHINGTON/NATL , DC, US) observed 2224 UTC 20 February 2019
Temperature: 1.1°C (34°F)
Dewpoint: -1.1°C (30°F) [RH = 85%]
Pressure (altimeter): 30.29 inches Hg (1025.8 mb)
Winds: from the NE (40 degrees) at 7 MPH (6 knots; 3.1 m/s)
Visibility: 3 miles ( 5 km)
Ceiling: 900 feet AGL
Clouds: scattered clouds at 500 feet AGL
broken clouds at 900 feet AGL
overcast cloud deck at 1600 feet AGL
Weather: -DZ BR  (light drizzle, mist)

METAR text: KDCA 202221Z COR 05007KT 3SM BR SCT005 BKN009 OVC016 01/M01 A3029 RMK AO2 RAE14 P0000 T00111011
Conditions at: KDCA (WASHINGTON/NATL , DC, US) observed 2221 UTC 20 February 2019
Temperature: 1.1°C (34°F)
Dewpoint: -1.1°C (30°F) [RH = 85%]
Pressure (altimeter): 30.29 inches Hg (1025.8 mb)
Winds: from the NE (50 degrees) at 8 MPH (7 knots; 3.6 m/s)
Visibility: 3 miles ( 5 km)
Ceiling: 900 feet AGL
Clouds: scattered clouds at 500 feet AGL
broken clouds at 900 feet AGL
overcast cloud deck at 1600 feet AGL
Weather: BR  (mist)

METAR text: KDCA 202211Z 05007KT 3SM -RA BR OVC007 01/M01 A3029 RMK AO2 P0000 T00111011
Conditions at: KDCA (WASHINGTON/NATL , DC, US) observed 2211 UTC 20 February 2019
Temperature: 1.1°C (34°F)
Dewpoint: -1.1°C (30°F) [RH = 85%]
Pressure (altimeter): 30.29 inches Hg (1025.8 mb)
Winds: from the NE (50 degrees) at 8 MPH (7 knots; 3.6 m/s)
Visibility: 3 miles ( 5 km)
Ceiling: 700 feet AGL
Clouds: overcast cloud deck at 700 feet AGL
Weather: -RA BR  (light rain, mist)

METAR text: KDCA 202205Z 03005KT 3SM -RA BR BKN004 OVC009 01/M01 A3031 RMK AO2 P0000 T00111011
Conditions at: KDCA (WASHINGTON/NATL , DC, US) observed 2205 UTC 20 February 2019
Temperature: 1.1°C (34°F)
Dewpoint: -1.1°C (30°F) [RH = 85%]
Pressure (altimeter): 30.31 inches Hg (1026.5 mb)
Winds: from the NNE (30 degrees) at 6 MPH (5 knots; 2.6 m/s)
Visibility: 3 miles ( 5 km)
Ceiling: 400 feet AGL
Clouds: broken clouds at 400 feet AGL
overcast cloud deck at 900 feet AGL
Weather: -RA BR  (light rain, mist)

METAR text: KDCA 202203Z 04004KT 3SM -RA BR OVC006 01/M01 A3031 RMK AO2 P0000 T00111011
Conditions at: KDCA (WASHINGTON/NATL , DC, US) observed 2203 UTC 20 February 2019
Temperature: 1.1°C (34°F)
Dewpoint: -1.1°C (30°F) [RH = 85%]
Pressure (altimeter): 30.31 inches Hg (1026.5 mb)
Winds: from the NE (40 degrees) at 5 MPH (4 knots; 2.1 m/s)
Visibility: 3 miles ( 5 km)
Ceiling: 600 feet AGL
Clouds: overcast cloud deck at 600 feet AGL
Weather: -RA BR  (light rain, mist)

METAR text: KDCA 202154Z 05006KT 2 1/2SM -RA BR OVC006 01/M01 A3031 RMK AO2 P0000 T00111011
Conditions at: KDCA (WASHINGTON/NATL , DC, US) observed 2154 UTC 20 February 2019
Temperature: 1.1°C (34°F)
Dewpoint: -1.1°C (30°F) [RH = 85%]
Pressure (altimeter): 30.31 inches Hg (1026.5 mb)
Winds: from the NE (50 degrees) at 7 MPH (6 knots; 3.1 m/s)
Visibility: 2.50 miles (4.02 km)
Ceiling: 600 feet AGL
Clouds: overcast cloud deck at 600 feet AGL
Weather: -RA BR  (light rain, mist)

METAR text: KDCA 202152Z 06006KT 2 1/2SM -RA BR BKN004 OVC008 01/M01 A3031 RMK AO2 SLP263 P0002 T00111011
Conditions at: KDCA (WASHINGTON/NATL , DC, US) observed 2152 UTC 20 February 2019
Temperature: 1.1°C (34°F)
Dewpoint: -1.1°C (30°F) [RH = 85%]
Pressure (altimeter): 30.31 inches Hg (1026.5 mb)
[Sea-level pressure: 1026.3 mb]
Winds: from the ENE (60 degrees) at 7 MPH (6 knots; 3.1 m/s)
Visibility: 2.50 miles (4.02 km)
Ceiling: 400 feet AGL
Clouds: broken clouds at 400 feet AGL
overcast cloud deck at 800 feet AGL
Weather: -RA BR  (light rain, mist)

METAR text: KDCA 202147Z 06007KT 2SM R01/6000FT -RA BR OVC004 01/M01 A3031 RMK AO2 P0002
Conditions at: KDCA (WASHINGTON/NATL , DC, US) observed 2147 UTC 20 February 2019
Temperature: 1.0°C (34°F)
Dewpoint: -1.0°C (30°F) [RH = 86%]
Pressure (altimeter): 30.31 inches Hg (1026.5 mb)
Winds: from the ENE (60 degrees) at 8 MPH (7 knots; 3.6 m/s)
Visibility: 2.00 miles (3.22 km)
Ceiling: 400 feet AGL
Clouds: overcast cloud deck at 400 feet AGL
Weather: -RA BR  (light rain, mist)

METAR text: KDCA 202145Z 05006KT 1 3/4SM R01/6000VP6000FT -RA BR OVC004 01/M01 A3031 RMK AO2 P0002 T00111006
Conditions at: KDCA (WASHINGTON/NATL , DC, US) observed 2145 UTC 20 February 2019
Temperature: 1.1°C (34°F)
Dewpoint: -0.6°C (31°F) [RH = 88%]
Pressure (altimeter): 30.31 inches Hg (1026.5 mb)
Winds: from the NE (50 degrees) at 7 MPH (6 knots; 3.1 m/s)
Visibility: 1.75 miles (2.82 km)
Ceiling: 400 feet AGL
Clouds: overcast cloud deck at 400 feet AGL
Weather: -RA BR  (light rain, mist)

METAR text: KDCA 202131Z 02004KT 1 3/4SM -RA BR OVC006 01/M01 A3032 RMK AO2 P0001 T00111006
Conditions at: KDCA (WASHINGTON/NATL , DC, US) observed 2131 UTC 20 February 2019
Temperature: 1.1°C (34°F)
Dewpoint: -0.6°C (31°F) [RH = 88%]
Pressure (altimeter): 30.32 inches Hg (1026.8 mb)
Winds: from the NNE (20 degrees) at 5 MPH (4 knots; 2.1 m/s)
Visibility: 1.75 miles (2.82 km)
Ceiling: 600 feet AGL
Clouds: overcast cloud deck at 600 feet AGL
Weather: -RA BR  (light rain, mist)

METAR text: KDCA 202109Z 00000KT 2SM -RA BR OVC006 01/M01 A3034 RMK AO2 P0000 T00111011
Conditions at: KDCA (WASHINGTON/NATL , DC, US) observed 2109 UTC 20 February 2019
Temperature: 1.1°C (34°F)
Dewpoint: -1.1°C (30°F) [RH = 85%]
Pressure (altimeter): 30.34 inches Hg (1027.5 mb)
Winds: calm
Visibility: 2.00 miles (3.22 km)
Ceiling: 600 feet AGL
Clouds: overcast cloud deck at 600 feet AGL
Weather: -RA BR  (light rain, mist)

METAR text: KDCA 202058Z 00000KT 2 1/2SM -RA BR OVC008 01/M01 A3033 RMK AO2 P0000 T00111006
Conditions at: KDCA (WASHINGTON/NATL , DC, US) observed 2058 UTC 20 February 2019
Temperature: 1.1°C (34°F)
Dewpoint: -0.6°C (31°F) [RH = 88%]
Pressure (altimeter): 30.33 inches Hg (1027.2 mb)
Winds: calm
Visibility: 2.50 miles (4.02 km)
Ceiling: 800 feet AGL
Clouds: overcast cloud deck at 800 feet AGL
Weather: -RA BR  (light rain, mist)

METAR text: KDCA 202052Z 00000KT 3SM -RA BR OVC009 01/M01 A3033 RMK AO2 SLP270 P0001 60011 I3000 T00111011 57028
Conditions at: KDCA (WASHINGTON/NATL , DC, US) observed 2052 UTC 20 February 2019
Temperature: 1.1°C (34°F)
Dewpoint: -1.1°C (30°F) [RH = 85%]
Pressure (altimeter): 30.33 inches Hg (1027.2 mb)
[Sea-level pressure: 1027.0 mb]
Winds: calm
Visibility: 3 miles ( 5 km)
Ceiling: 900 feet AGL
Clouds: overcast cloud deck at 900 feet AGL
Weather: -RA BR  (light rain, mist)

METAR text: KDCA 202011Z VRB03KT 7SM -RA BKN009 OVC013 01/M01 A3035 RMK AO2 P0000 T00111011
Conditions at: KDCA (WASHINGTON/NATL , DC, US) observed 2011 UTC 20 February 2019
Temperature: 1.1°C (34°F)
Dewpoint: -1.1°C (30°F) [RH = 85%]
Pressure (altimeter): 30.35 inches Hg (1027.9 mb)
Winds: variable direction winds at 3 MPH (3 knots; 1.5 m/s)
Visibility: 7 miles (11 km)
Ceiling: 900 feet AGL
Clouds: broken clouds at 900 feet AGL
overcast cloud deck at 1300 feet AGL
Weather: -RA  (light rain)

METAR text: KDCA 201952Z 14004KT 4SM -RA BR OVC011 01/M01 A3036 RMK AO2 PLB1853E1855 PRESFR SLP278 P0006 T00061011
Conditions at: KDCA (WASHINGTON/NATL , DC, US) observed 1952 UTC 20 February 2019
Temperature: 0.6°C (33°F)
Dewpoint: -1.1°C (30°F) [RH = 88%]
Pressure (altimeter): 30.36 inches Hg (1028.2 mb)
[Sea-level pressure: 1027.8 mb]
Winds: from the SE (140 degrees) at 5 MPH (4 knots; 2.1 m/s)
Visibility: 4 miles ( 6 km)
Ceiling: 1100 feet AGL
Clouds: overcast cloud deck at 1100 feet AGL
Weather: -RA BR  (light rain, mist)

METAR text: KDCA 201856Z 10007KT 4SM -RA OVC010 01/M02 A3039 RMK AO2 PLB53E55 P0000 T00111017
Conditions at: KDCA (WASHINGTON/NATL , DC, US) observed 1856 UTC 20 February 2019
Temperature: 1.1°C (34°F)
Dewpoint: -1.7°C (29°F) [RH = 82%]
Pressure (altimeter): 30.39 inches Hg (1029.2 mb)
Winds: from the E (100 degrees) at 8 MPH (7 knots; 3.6 m/s)
Visibility: 4 miles ( 6 km)
Ceiling: 1000 feet AGL
Clouds: overcast cloud deck at 1000 feet AGL
Weather: -RA  (light rain)

METAR text: KDCA 201854Z 09007KT 4SM PLRA OVC010 01/M02 A3039 RMK AO2 PLB53 P0000 T00061017
Conditions at: KDCA (WASHINGTON/NATL , DC, US) observed 1854 UTC 20 February 2019
Temperature: 0.6°C (33°F)
Dewpoint: -1.7°C (29°F) [RH = 85%]
Pressure (altimeter): 30.39 inches Hg (1029.2 mb)
Winds: from the E (90 degrees) at 8 MPH (7 knots; 3.6 m/s)
Visibility: 4 miles ( 6 km)
Ceiling: 1000 feet AGL
Clouds: overcast cloud deck at 1000 feet AGL
Weather: PL RA  (moderate ice pellets, moderate rain)

METAR text: KDCA 201852Z 09005KT 4SM -RA BR OVC010 01/M02 A3039 RMK AO2 RAB30PLE18B49E51 SLP290 P0004 I1000 T00061017
Conditions at: KDCA (WASHINGTON/NATL , DC, US) observed 1852 UTC 20 February 2019
Temperature: 0.6°C (33°F)
Dewpoint: -1.7°C (29°F) [RH = 85%]
Pressure (altimeter): 30.39 inches Hg (1029.2 mb)
[Sea-level pressure: 1029.0 mb]
Winds: from the E (90 degrees) at 6 MPH (5 knots; 2.6 m/s)
Visibility: 4 miles ( 6 km)
Ceiling: 1000 feet AGL
Clouds: overcast cloud deck at 1000 feet AGL
Weather: -RA BR  (light rain, mist)

METAR text: KDCA 201831Z 09007KT 5SM RA BR OVC012 01/M02 A3040 RMK AO2 RAB30PLE18 P0002 I1000 T00061022 $
Conditions at: KDCA (WASHINGTON/NATL , DC, US) observed 1831 UTC 20 February 2019
Temperature: 0.6°C (33°F)
Dewpoint: -2.2°C (28°F) [RH = 81%]
Pressure (altimeter): 30.40 inches Hg (1029.5 mb)
Winds: from the E (90 degrees) at 8 MPH (7 knots; 3.6 m/s)
Visibility: 5 miles ( 8 km)
Ceiling: 1200 feet AGL
Clouds: overcast cloud deck at 1200 feet AGL
Weather: RA BR  (moderate rain, mist)
SOME DATA ABOVE MAY BE INACCURATE!!!
"$" is an indication the sensor requires maintenance

METAR text: KDCA 201818Z 08006KT 6SM BR BKN013 BKN019 OVC090 01/M02 A3042 RMK AO2 PLE18 P0001 I1000 T00061022 $
Conditions at: KDCA (WASHINGTON/NATL , DC, US) observed 1818 UTC 20 February 2019
Temperature: 0.6°C (33°F)
Dewpoint: -2.2°C (28°F) [RH = 81%]
Pressure (altimeter): 30.42 inches Hg (1030.2 mb)
Winds: from the E (80 degrees) at 7 MPH (6 knots; 3.1 m/s)
Visibility: 6 miles (10 km)
Ceiling: 1300 feet AGL
Clouds: broken clouds at 1300 feet AGL
broken clouds at 1900 feet AGL
overcast cloud deck at 9000 feet AGL
Weather: BR  (mist)
SOME DATA ABOVE MAY BE INACCURATE!!!
"$" is an indication the sensor requires maintenance

METAR text: KDCA 201802Z 13007KT 4SM -PL BR BKN010 BKN055 OVC095 01/M02 A3041 RMK AO2 I1000 T00061017 PNO $
Conditions at: KDCA (WASHINGTON/NATL , DC, US) observed 1802 UTC 20 February 2019
Temperature: 0.6°C (33°F)
Dewpoint: -1.7°C (29°F) [RH = 85%]
Pressure (altimeter): 30.41 inches Hg (1029.9 mb)
Winds: from the SE (130 degrees) at 8 MPH (7 knots; 3.6 m/s)
Visibility: 4 miles ( 6 km)
Ceiling: 1000 feet AGL
Clouds: broken clouds at 1000 feet AGL
broken clouds at 5500 feet AGL
overcast cloud deck at 9500 feet AGL
Weather: -PL BR  (light ice pellets, mist)
SOME DATA ABOVE MAY BE INACCURATE!!!
"$" is an indication the sensor requires maintenance

METAR text: KDCA 201752Z 12008KT 3SM -PL BKN009 BKN048 OVC070 01/M02 A3041 RMK AO2 PRESFR SLP298 BKN009 V SCT PLB01 4/003 933002 P0014 60052 T00061022 10006 21011 58027
Conditions at: KDCA (WASHINGTON/NATL , DC, US) observed 1752 UTC 20 February 2019
Temperature: 0.6°C (33°F)
Dewpoint: -2.2°C (28°F) [RH = 81%]
Pressure (altimeter): 30.41 inches Hg (1029.9 mb)
[Sea-level pressure: 1029.8 mb]
Winds: from the ESE (120 degrees) at 9 MPH (8 knots; 4.1 m/s)
Visibility: 3 miles ( 5 km)
Ceiling: 900 feet AGL
Clouds: broken clouds at 900 feet AGL
broken clouds at 4800 feet AGL
overcast cloud deck at 7000 feet AGL
Weather: -PL  (light ice pellets)

METAR text: KDCA 201749Z 12009KT 3SM -PL BR BKN009 BKN048 OVC070 00/M02 A3042 RMK AO2 PRESFR BKN009 V SCT PLB01 P0013
Conditions at: KDCA (WASHINGTON/NATL , DC, US) observed 1749 UTC 20 February 2019
Temperature: 0.0°C (32°F)
Dewpoint: -2.0°C (28°F) [RH = 86%]
Pressure (altimeter): 30.42 inches Hg (1030.2 mb)
Winds: from the ESE (120 degrees) at 10 MPH (9 knots; 4.6 m/s)
Visibility: 3 miles ( 5 km)
Ceiling: 900 feet AGL
Clouds: broken clouds at 900 feet AGL
broken clouds at 4800 feet AGL
overcast cloud deck at 7000 feet AGL
Weather: -PL BR  (light ice pellets, mist)

METAR text: KDCA 201743Z 14009KT 2 1/2SM -PL BR BKN009 BKN048 OVC070 00/M02 A3043 RMK AO2 PRESFR PLB01 P0012 T00001022
Conditions at: KDCA (WASHINGTON/NATL , DC, US) observed 1743 UTC 20 February 2019
Temperature: 0.0°C (32°F)
Dewpoint: -2.2°C (28°F) [RH = 85%]
Pressure (altimeter): 30.43 inches Hg (1030.6 mb)
Winds: from the SE (140 degrees) at 10 MPH (9 knots; 4.6 m/s)
Visibility: 2.50 miles (4.02 km)
Ceiling: 900 feet AGL
Clouds: broken clouds at 900 feet AGL
broken clouds at 4800 feet AGL
overcast cloud deck at 7000 feet AGL
Weather: -PL BR  (light ice pellets, mist)

METAR text: KDCA 201723Z 11006KT 2SM -PLSN BR SCT009 BKN016 OVC038 00/M02 A3048 RMK AO2 PLB01 P0007 T00001022
Conditions at: KDCA (WASHINGTON/NATL , DC, US) observed 1723 UTC 20 February 2019
Temperature: 0.0°C (32°F)
Dewpoint: -2.2°C (28°F) [RH = 85%]
Pressure (altimeter): 30.48 inches Hg (1032.3 mb)
Winds: from the ESE (110 degrees) at 7 MPH (6 knots; 3.1 m/s)
Visibility: 2.00 miles (3.22 km)
Ceiling: 1600 feet AGL
Clouds: scattered clouds at 900 feet AGL
broken clouds at 1600 feet AGL
overcast cloud deck at 3800 feet AGL
Weather: -PL -SN BR  (light ice pellets, light snow, mist)

METAR text: KDCA 201714Z 10003KT 1 1/2SM R01/5500VP6000FT -SNPL BR FEW005 BKN016 OVC060 M01/M02 A3049 RMK AO2 PLB01 P0005 T10061022 $
Conditions at: KDCA (WASHINGTON/NATL , DC, US) observed 1714 UTC 20 February 2019
Temperature: -0.6°C (31°F)
Dewpoint: -2.2°C (28°F) [RH = 89%]
Pressure (altimeter): 30.49 inches Hg (1032.6 mb)
Winds: from the E (100 degrees) at 3 MPH (3 knots; 1.5 m/s)
Visibility: 1.50 miles (2.41 km)
Ceiling: 1600 feet AGL
Clouds: few clouds at 500 feet AGL
broken clouds at 1600 feet AGL
overcast cloud deck at 6000 feet AGL
Weather: -SN -PL BR  (light snow, light ice pellets, mist)
SOME DATA ABOVE MAY BE INACCURATE!!!
"$" is an indication the sensor requires maintenance

METAR text: KDCA 201709Z 10005KT 1SM R01/4000VP6000FT -SNPL BR SCT005 BKN011 OVC065 M01/M02 A3048 RMK AO2 PLB01 P0003 T10061022 $
Conditions at: KDCA (WASHINGTON/NATL , DC, US) observed 1709 UTC 20 February 2019
Temperature: -0.6°C (31°F)
Dewpoint: -2.2°C (28°F) [RH = 89%]
Pressure (altimeter): 30.48 inches Hg (1032.3 mb)
Winds: from the E (100 degrees) at 6 MPH (5 knots; 2.6 m/s)
Visibility: 1.00 miles (1.61 km)
Ceiling: 1100 feet AGL
Clouds: scattered clouds at 500 feet AGL
broken clouds at 1100 feet AGL
overcast cloud deck at 6500 feet AGL
Weather: -SN -PL BR  (light snow, light ice pellets, mist)
SOME DATA ABOVE MAY BE INACCURATE!!!
"$" is an indication the sensor requires maintenance

METAR text: KDCA 201707Z 11005KT 3/4SM R01/3500VP6000FT SNPL BR SCT007 BKN019 OVC065 M01/M02 A3048 RMK AO2 PLB01 P0003 T10061022 $
Conditions at: KDCA (WASHINGTON/NATL , DC, US) observed 1707 UTC 20 February 2019
Temperature: -0.6°C (31°F)
Dewpoint: -2.2°C (28°F) [RH = 89%]
Pressure (altimeter): 30.48 inches Hg (1032.3 mb)
Winds: from the ESE (110 degrees) at 6 MPH (5 knots; 2.6 m/s)
Visibility: 0.75 miles (1.21 km)
Ceiling: 1900 feet AGL
Clouds: scattered clouds at 700 feet AGL
broken clouds at 1900 feet AGL
overcast cloud deck at 6500 feet AGL
Weather: SN PL BR  (moderate snow, moderate ice pellets, mist)
SOME DATA ABOVE MAY BE INACCURATE!!!
"$" is an indication the sensor requires maintenance

METAR text: KDCA 201701Z 08008KT 1/2SM R01/2600V4000FT SNPL BR SCT005 OVC012 M01/M02 A3049 RMK AO2 PLB01 P0002 T10061022 $
Conditions at: KDCA (WASHINGTON/NATL , DC, US) observed 1701 UTC 20 February 2019
Temperature: -0.6°C (31°F)
Dewpoint: -2.2°C (28°F) [RH = 89%]
Pressure (altimeter): 30.49 inches Hg (1032.6 mb)
Winds: from the E (80 degrees) at 9 MPH (8 knots; 4.1 m/s)
Visibility: 0.50 miles (0.80 km)
Ceiling: 1200 feet AGL
Clouds: scattered clouds at 500 feet AGL
overcast cloud deck at 1200 feet AGL
Weather: SN PL BR  (moderate snow, moderate ice pellets, mist)
SOME DATA ABOVE MAY BE INACCURATE!!!
"$" is an indication the sensor requires maintenance

METAR text: KDCA 201652Z 06007KT 1/2SM R01/2600V3500FT SN BR SCT005 OVC012 M01/M02 A3050 RMK AO2 PLE44 SLP327 P0010 T10061022 $
Conditions at: KDCA (WASHINGTON/NATL , DC, US) observed 1652 UTC 20 February 2019
Temperature: -0.6°C (31°F)
Dewpoint: -2.2°C (28°F) [RH = 89%]
Pressure (altimeter): 30.50 inches Hg (1032.9 mb)
[Sea-level pressure: 1032.7 mb]
Winds: from the ENE (60 degrees) at 8 MPH (7 knots; 3.6 m/s)
Visibility: 0.50 miles (0.80 km)
Ceiling: 1200 feet AGL
Clouds: scattered clouds at 500 feet AGL
overcast cloud deck at 1200 feet AGL
Weather: SN BR  (moderate snow, mist)
SOME DATA ABOVE MAY BE INACCURATE!!!
"$" is an indication the sensor requires maintenance

METAR text: KDCA 201644Z 05007KT 1/2SM R01/3000V4000FT SN BR SCT005 OVC012 M01/M02 A3051 RMK AO2 PLE44 P0009 T10061022 $
Conditions at: KDCA (WASHINGTON/NATL , DC, US) observed 1644 UTC 20 February 2019
Temperature: -0.6°C (31°F)
Dewpoint: -2.2°C (28°F) [RH = 89%]
Pressure (altimeter): 30.51 inches Hg (1033.3 mb)
Winds: from the NE (50 degrees) at 8 MPH (7 knots; 3.6 m/s)
Visibility: 0.50 miles (0.80 km)
Ceiling: 1200 feet AGL
Clouds: scattered clouds at 500 feet AGL
overcast cloud deck at 1200 feet AGL
Weather: SN BR  (moderate snow, mist)
SOME DATA ABOVE MAY BE INACCURATE!!!
"$" is an indication the sensor requires maintenance

METAR text: KDCA 201621Z 06006KT 3/4SM R01/3500V5000FT -SNPL BR FEW008 OVC014 M01/M03 A3054 RMK AO2 P0005 T10061028
Conditions at: KDCA (WASHINGTON/NATL , DC, US) observed 1621 UTC 20 February 2019
Temperature: -0.6°C (31°F)
Dewpoint: -2.8°C (27°F) [RH = 85%]
Pressure (altimeter): 30.54 inches Hg (1034.3 mb)
Winds: from the ENE (60 degrees) at 7 MPH (6 knots; 3.1 m/s)
Visibility: 0.75 miles (1.21 km)
Ceiling: 1400 feet AGL
Clouds: few clouds at 800 feet AGL
overcast cloud deck at 1400 feet AGL
Weather: -SN -PL BR  (light snow, light ice pellets, mist)

METAR text: KDCA 201604Z 06006KT 1 1/2SM -SNPL BR FEW008 FEW011 OVC018 M01/M03 A3054 RMK AO2 PRESRR P0001 T10061028
Conditions at: KDCA (WASHINGTON/NATL , DC, US) observed 1604 UTC 20 February 2019
Temperature: -0.6°C (31°F)
Dewpoint: -2.8°C (27°F) [RH = 85%]
Pressure (altimeter): 30.54 inches Hg (1034.3 mb)
Winds: from the ENE (60 degrees) at 7 MPH (6 knots; 3.1 m/s)
Visibility: 1.50 miles (2.41 km)
Ceiling: 1800 feet AGL
Clouds: few clouds at 800 feet AGL
few clouds at 1100 feet AGL
overcast cloud deck at 1800 feet AGL
Weather: -SN -PL BR  (light snow, light ice pellets, mist)

METAR text: KDCA 201552Z 08009KT 1SM R01/5500VP6000FT -SNPL BR FEW012 OVC020 M01/M03 A3050 RMK AO2 SLP325 PLB44 P0008 T10061028
Conditions at: KDCA (WASHINGTON/NATL , DC, US) observed 1552 UTC 20 February 2019
Temperature: -0.6°C (31°F)
Dewpoint: -2.8°C (27°F) [RH = 85%]
Pressure (altimeter): 30.50 inches Hg (1032.9 mb)
[Sea-level pressure: 1032.5 mb]
Winds: from the E (80 degrees) at 10 MPH (9 knots; 4.6 m/s)
Visibility: 1.00 miles (1.61 km)
Ceiling: 2000 feet AGL
Clouds: few clouds at 1200 feet AGL
overcast cloud deck at 2000 feet AGL
Weather: -SN -PL BR  (light snow, light ice pellets, mist)

METAR text: KDCA 201547Z 08007KT 1SM R01/5500VP6000FT -SNPL BR SCT012 OVC018 M01/M02 A3051 RMK AO2 PLB44 P0007
Conditions at: KDCA (WASHINGTON/NATL , DC, US) observed 1547 UTC 20 February 2019
Temperature: -1.0°C (30°F)
Dewpoint: -2.0°C (28°F) [RH = 93%]
Pressure (altimeter): 30.51 inches Hg (1033.3 mb)
Winds: from the E (80 degrees) at 8 MPH (7 knots; 3.6 m/s)
Visibility: 1.00 miles (1.61 km)
Ceiling: 1800 feet AGL
Clouds: scattered clouds at 1200 feet AGL
overcast cloud deck at 1800 feet AGL
Weather: -SN -PL BR  (light snow, light ice pellets, mist)

METAR text: KDCA 201534Z 08006KT 3/4SM R01/5000VP6000FT -SN BR FEW005 SCT012 OVC018 M01/M03 A3053 RMK AO2 P0005 T10061028
Conditions at: KDCA (WASHINGTON/NATL , DC, US) observed 1534 UTC 20 February 2019
Temperature: -0.6°C (31°F)
Dewpoint: -2.8°C (27°F) [RH = 85%]
Pressure (altimeter): 30.53 inches Hg (1033.9 mb)
Winds: from the E (80 degrees) at 7 MPH (6 knots; 3.1 m/s)
Visibility: 0.75 miles (1.21 km)
Ceiling: 1800 feet AGL
Clouds: few clouds at 500 feet AGL
scattered clouds at 1200 feet AGL
overcast cloud deck at 1800 feet AGL
Weather: -SN BR  (light snow, mist)

METAR text: KDCA 201522Z 09008KT 3/4SM R01/4000V5000FT -SN BR SCT005 OVC012 M01/M03 A3052 RMK AO2 P0004 T10061028
Conditions at: KDCA (WASHINGTON/NATL , DC, US) observed 1522 UTC 20 February 2019
Temperature: -0.6°C (31°F)
Dewpoint: -2.8°C (27°F) [RH = 85%]
Pressure (altimeter): 30.52 inches Hg (1033.6 mb)
Winds: from the E (90 degrees) at 9 MPH (8 knots; 4.1 m/s)
Visibility: 0.75 miles (1.21 km)
Ceiling: 1200 feet AGL
Clouds: scattered clouds at 500 feet AGL
overcast cloud deck at 1200 feet AGL
Weather: -SN BR  (light snow, mist)

Forecast for: KDCA (WASHINGTON/NATL , DC, US)
Text: KDCA 212337Z 2200/2306 32006KT P6SM BKN150
Forecast period: 0000 UTC 22 February 2019 to 0200 UTC 23 February 2019
Forecast type: FROM: standard forecast or significant change
Winds: from the NW (320 degrees) at 7 MPH (6 knots; 3.1 m/s)
Visibility: 6 or more miles 10+ km)
Ceiling: 15000 feet AGL
Clouds: broken clouds at 15000 feet AGL
Weather: no significant weather forecast for this period
Text: FM230200 00000KT P6SM BKN150 OVC250
Forecast period: 0200 to 0600 UTC 23 February 2019
Forecast type: FROM: standard forecast or significant change
Winds: calm
Visibility: 6 or more miles 10+ km)
Ceiling: 15000 feet AGL
Clouds: broken clouds at 15000 feet AGL
overcast cloud deck at 25000 feet AGL
Weather: no significant weather forecast for this period